createdAt,value
2023-05-17T00:00:46.314Z,3.88
2023-05-17T00:03:12.838Z,3.88
2023-05-17T00:05:39.426Z,4.07
2023-05-17T00:08:06.042Z,3.35
2023-05-17T00:10:32.631Z,3.35
2023-05-17T00:12:59.153Z,3.53
2023-05-17T00:15:25.712Z,3.85
2023-05-17T00:17:52.351Z,4.20
2023-05-17T00:20:18.967Z,4.03
2023-05-17T00:22:47.246Z,3.28
2023-05-17T00:25:13.884Z,3.22
2023-05-17T00:27:40.361Z,4.00
2023-05-17T00:30:07.586Z,3.58
2023-05-17T00:32:34.101Z,3.50
2023-05-17T00:35:00.760Z,3.45
2023-05-17T00:37:27.311Z,4.05
2023-05-17T00:39:54.203Z,3.92
2023-05-17T00:42:20.898Z,4.10
2023-05-17T00:44:47.412Z,3.88
2023-05-17T00:47:13.988Z,4.63
2023-05-17T00:49:41.107Z,4.43
2023-05-17T00:52:07.628Z,5.38
2023-05-17T00:54:34.894Z,4.15
2023-05-17T00:57:01.522Z,5.78
2023-05-17T00:59:29.386Z,4.75
2023-05-17T01:01:56.564Z,4.40
2023-05-17T01:04:23.212Z,3.75
2023-05-17T01:06:50.201Z,4.78
2023-05-17T01:09:17.286Z,4.00
2023-05-17T01:11:58.923Z,5.47
2023-05-17T01:14:41.499Z,3.97
2023-05-17T01:17:22.825Z,3.92
2023-05-17T01:20:01.926Z,4.60
2023-05-17T01:22:37.766Z,4.35
2023-05-17T01:25:35.009Z,4.82
2023-05-17T01:28:03.539Z,4.35
2023-05-17T01:30:33.729Z,4.82
2023-05-17T01:33:02.759Z,4.20
2023-05-17T01:35:29.716Z,4.78
2023-05-17T01:37:56.521Z,5.10
2023-05-17T01:40:24.458Z,5.22
2023-05-17T01:43:08.466Z,4.68
2023-05-17T01:45:44.134Z,3.95
2023-05-17T01:48:40.113Z,4.28
2023-05-17T01:51:09.458Z,4.80
2023-05-17T01:53:36.119Z,4.40
2023-05-17T01:56:07.727Z,4.15
2023-05-17T01:58:44.251Z,4.28
2023-05-17T02:01:11.464Z,4.57
2023-05-17T02:03:38.018Z,5.13
2023-05-17T02:06:04.799Z,4.43
2023-05-17T02:08:31.360Z,5.70
2023-05-17T02:10:57.812Z,4.22
2023-05-17T02:13:24.330Z,4.88
2023-05-17T02:15:50.894Z,5.40
2023-05-17T02:18:17.542Z,5.05
2023-05-17T02:20:44.164Z,4.93
2023-05-17T02:23:11.369Z,4.68
2023-05-17T02:25:37.849Z,5.38
2023-05-17T02:28:04.522Z,4.60
2023-05-17T02:30:31.200Z,4.88
2023-05-17T02:32:58.286Z,4.57
2023-05-17T02:35:25.140Z,4.97
2023-05-17T02:37:52.066Z,4.57
2023-05-17T02:40:18.680Z,4.97
2023-05-17T02:42:45.276Z,5.25
2023-05-17T02:45:11.794Z,5.03
2023-05-17T02:47:38.479Z,4.90
2023-05-17T02:50:05.485Z,5.25
2023-05-17T02:52:32.129Z,5.95
2023-05-17T02:54:58.666Z,5.22
2023-05-17T02:57:25.154Z,5.30
2023-05-17T02:59:51.747Z,5.22
2023-05-17T03:02:18.365Z,5.38
2023-05-17T03:04:45.075Z,4.97
2023-05-17T03:07:11.684Z,5.13
2023-05-17T03:09:38.189Z,5.75
2023-05-17T03:12:04.991Z,4.85
2023-05-17T03:14:31.474Z,4.90
2023-05-17T03:16:57.968Z,6.00
2023-05-17T03:19:24.675Z,5.65
2023-05-17T03:21:51.280Z,4.85
2023-05-17T03:24:17.911Z,5.00
2023-05-17T03:26:44.592Z,5.05
2023-05-17T03:29:11.688Z,5.25
2023-05-17T03:31:38.160Z,4.43
2023-05-17T03:34:04.740Z,5.80
2023-05-17T03:36:38.253Z,5.65
2023-05-17T03:39:04.999Z,4.85
2023-05-17T03:41:32.210Z,4.63
2023-05-17T03:43:58.641Z,5.45
2023-05-17T03:46:25.168Z,4.65
2023-05-17T03:48:51.778Z,5.03
2023-05-17T03:51:18.529Z,5.57
2023-05-17T03:53:45.056Z,4.80
2023-05-17T03:56:11.746Z,4.55
2023-05-17T03:58:38.483Z,4.93
2023-05-17T04:01:05.302Z,4.55
2023-05-17T04:03:31.991Z,4.65
2023-05-17T04:06:07.012Z,4.25
2023-05-17T04:08:34.635Z,4.78
2023-05-17T04:11:10.031Z,4.88
2023-05-17T04:13:39.401Z,4.55
2023-05-17T04:16:07.328Z,4.10
2023-05-17T04:18:36.256Z,4.78
2023-05-17T04:21:03.689Z,4.30
2023-05-17T04:23:30.859Z,4.68
2023-05-17T04:25:58.498Z,4.55
2023-05-17T04:28:25.953Z,4.65
2023-05-17T04:30:52.989Z,5.30
2023-05-17T04:33:20.040Z,4.85
2023-05-17T04:35:46.789Z,4.95
2023-05-17T04:38:13.542Z,4.93
2023-05-17T04:40:40.282Z,4.50
2023-05-17T04:43:07.066Z,5.32
2023-05-17T04:45:34.042Z,4.88
2023-05-17T04:48:00.855Z,4.18
2023-05-17T04:50:28.050Z,4.60
2023-05-17T04:52:54.520Z,4.50
2023-05-17T04:55:21.367Z,4.65
2023-05-17T04:57:47.825Z,4.97
2023-05-17T05:00:15.642Z,4.88
2023-05-17T05:02:42.625Z,4.60
2023-05-17T05:05:12.289Z,4.35
2023-05-17T05:07:40.085Z,3.95
2023-05-17T05:10:07.392Z,5.57
2023-05-17T05:12:33.878Z,4.60
2023-05-17T05:15:01.213Z,4.93
2023-05-17T05:17:29.504Z,4.63
2023-05-17T05:19:56.301Z,4.78
2023-05-17T05:22:22.795Z,5.00
2023-05-17T05:24:49.283Z,4.70
2023-05-17T05:27:16.036Z,5.40
2023-05-17T05:29:42.667Z,5.28
2023-05-17T05:32:09.275Z,5.55
2023-05-17T05:34:35.752Z,5.15
2023-05-17T05:37:02.227Z,4.50
2023-05-17T05:39:29.056Z,4.85
2023-05-17T05:41:55.579Z,4.35
2023-05-17T05:44:23.374Z,3.60
2023-05-17T05:46:51.746Z,3.42
2023-05-17T05:49:19.500Z,3.65
2023-05-17T05:51:45.938Z,4.93
2023-05-17T05:54:13.722Z,4.05
2023-05-17T05:56:40.482Z,3.83
2023-05-17T05:59:07.204Z,3.92
2023-05-17T06:01:34.190Z,3.97
2023-05-17T06:04:00.730Z,4.50
2023-05-17T06:06:27.324Z,4.55
2023-05-17T06:08:53.943Z,3.38
2023-05-17T06:11:21.216Z,3.28
2023-05-17T06:13:50.770Z,3.40
2023-05-17T06:16:17.449Z,3.85
2023-05-17T06:18:43.942Z,2.72
2023-05-17T06:21:13.308Z,2.90
2023-05-17T06:23:39.828Z,3.08
2023-05-17T06:26:10.435Z,2.28
2023-05-17T06:28:37.991Z,2.88
2023-05-17T06:31:04.643Z,2.40
2023-05-17T06:33:31.207Z,2.72
2023-05-17T06:38:32.292Z,3.13
2023-05-17T06:40:58.804Z,2.47
2023-05-17T06:43:25.282Z,3.10
2023-05-17T06:45:51.853Z,2.28
2023-05-17T06:48:18.414Z,2.67
2023-05-17T06:50:45.034Z,2.67
2023-05-17T06:53:11.679Z,2.22
2023-05-17T06:55:38.359Z,2.92
2023-05-17T06:58:04.901Z,3.17
2023-05-17T07:00:31.935Z,2.30
2023-05-17T07:02:58.841Z,2.65
2023-05-17T07:05:25.571Z,2.30
2023-05-17T07:07:52.378Z,2.53
2023-05-17T07:10:21.287Z,1.75
2023-05-17T07:12:48.005Z,1.90
2023-05-17T07:15:14.719Z,2.05
2023-05-17T07:17:41.737Z,2.42
2023-05-17T07:20:08.729Z,1.88
2023-05-17T07:22:37.249Z,2.70
2023-05-17T07:25:05.122Z,1.63
2023-05-17T07:27:31.559Z,1.75
2023-05-17T07:29:58.057Z,2.03
2023-05-17T07:32:24.537Z,1.73
2023-05-17T07:34:51.124Z,1.70
2023-05-17T07:37:17.907Z,1.75
2023-05-17T07:39:44.452Z,1.67
2023-05-17T07:42:10.989Z,1.65
2023-05-17T07:44:37.506Z,1.92
2023-05-17T07:47:04.131Z,2.17
2023-05-17T07:49:31.319Z,1.40
2023-05-17T07:52:00.273Z,1.42
2023-05-17T07:54:29.897Z,1.83
2023-05-17T07:56:56.641Z,1.60
2023-05-17T07:59:23.489Z,1.20
2023-05-17T08:01:50.582Z,1.80
2023-05-17T08:04:17.376Z,0.90
2023-05-17T08:06:46.439Z,2.00
2023-05-17T08:09:12.949Z,1.45
2023-05-17T08:11:46.217Z,1.45
2023-05-17T08:14:14.671Z,2.03
2023-05-17T08:16:46.280Z,1.40
2023-05-17T08:19:14.909Z,1.17
2023-05-17T08:21:42.939Z,1.48
2023-05-17T08:24:09.966Z,1.63
2023-05-17T08:26:36.667Z,1.83
2023-05-17T08:29:04.893Z,1.45
2023-05-17T08:31:32.509Z,1.45
2023-05-17T08:33:59.105Z,1.70
2023-05-17T08:36:26.013Z,1.33
2023-05-17T08:38:52.526Z,1.38
2023-05-17T08:41:20.703Z,1.63
2023-05-17T08:43:49.248Z,1.65
2023-05-17T08:46:18.571Z,1.85
2023-05-17T08:48:46.766Z,1.38
2023-05-17T08:51:14.696Z,1.13
2023-05-17T08:53:42.664Z,1.13
2023-05-17T08:56:14.052Z,1.48
2023-05-17T08:58:55.659Z,1.30
2023-05-17T09:01:25.888Z,1.45
2023-05-17T09:03:53.822Z,1.23
2023-05-17T09:06:22.360Z,1.20
2023-05-17T09:11:35.181Z,1.48
2023-05-17T09:14:04.986Z,1.33
2023-05-17T09:16:36.638Z,1.63
2023-05-17T09:19:05.428Z,1.15
2023-05-17T09:21:32.961Z,1.35
2023-05-17T09:26:41.602Z,1.20
2023-05-17T09:29:10.620Z,1.20
2023-05-17T09:31:37.302Z,1.60
2023-05-17T09:34:04.018Z,1.30
2023-05-17T09:36:30.538Z,1.25
2023-05-17T09:39:02.150Z,1.90
2023-05-17T09:41:30.787Z,1.25
2023-05-17T09:44:01.352Z,1.30
2023-05-17T09:46:34.983Z,1.27
2023-05-17T09:49:03.187Z,1.45
2023-05-17T09:51:38.983Z,1.27
2023-05-17T09:54:10.040Z,1.40
2023-05-17T09:56:36.965Z,1.52
2023-05-17T09:59:10.398Z,1.40
2023-05-17T10:01:41.180Z,1.42
2023-05-17T10:04:10.606Z,1.58
2023-05-17T10:09:14.227Z,1.80
2023-05-17T10:11:44.355Z,1.38
2023-05-17T10:14:22.973Z,1.33
2023-05-17T10:16:51.348Z,1.83
2023-05-17T10:19:20.251Z,1.30
2023-05-17T10:21:53.913Z,1.42
2023-05-17T10:24:23.946Z,1.17
2023-05-17T10:26:51.206Z,1.23
2023-05-17T10:29:21.057Z,1.20
2023-05-17T10:31:50.396Z,1.35
2023-05-17T10:34:18.898Z,1.23
2023-05-17T10:36:46.495Z,1.30
2023-05-17T10:39:13.185Z,0.90
2023-05-17T10:41:46.478Z,1.20
2023-05-17T10:44:14.911Z,1.27
2023-05-17T10:46:51.486Z,1.38
2023-05-17T10:49:22.123Z,1.08
2023-05-17T10:51:51.105Z,1.33
2023-05-17T10:54:18.711Z,1.20
2023-05-17T10:56:50.892Z,1.30
2023-05-17T10:59:26.978Z,1.20
2023-05-17T11:02:05.540Z,1.38
2023-05-17T11:04:32.739Z,1.30
2023-05-17T11:07:17.836Z,1.25
2023-05-17T11:09:45.721Z,1.30
2023-05-17T11:12:13.921Z,1.40
2023-05-17T11:17:14.701Z,1.05
2023-05-17T11:19:59.425Z,1.30
2023-05-17T11:22:27.609Z,1.20
2023-05-17T11:27:27.614Z,1.40
2023-05-17T11:30:00.207Z,1.25
2023-05-17T11:32:32.233Z,1.40
2023-05-17T11:35:02.222Z,1.30
2023-05-17T11:37:29.840Z,1.42
2023-05-17T11:40:08.134Z,1.58
2023-05-17T11:42:36.421Z,1.58
2023-05-17T11:47:30.090Z,1.45
2023-05-17T11:50:01.233Z,1.60
2023-05-17T11:52:29.404Z,1.50
2023-05-17T11:54:58.092Z,1.77
2023-05-17T11:57:32.448Z,1.30
2023-05-17T12:00:01.785Z,1.95
2023-05-17T12:02:32.619Z,1.83
2023-05-17T12:04:59.359Z,1.92
2023-05-17T12:07:26.451Z,1.42
2023-05-17T12:09:53.084Z,1.17
2023-05-17T12:12:21.996Z,2.35
2023-05-17T12:14:48.965Z,1.73
2023-05-17T12:17:29.381Z,1.45
2023-05-17T12:19:56.009Z,2.10
2023-05-17T12:22:22.660Z,1.80
2023-05-17T12:24:49.194Z,1.75
2023-05-17T12:27:25.121Z,1.95
2023-05-17T12:29:51.626Z,2.08
2023-05-17T12:32:18.182Z,1.77
2023-05-17T12:34:46.049Z,1.92
2023-05-17T12:37:13.202Z,2.22
2023-05-17T12:39:40.582Z,2.10
2023-05-17T12:42:07.933Z,1.92
2023-05-17T12:44:34.592Z,1.83
2023-05-17T12:47:03.079Z,2.30
2023-05-17T12:49:29.660Z,2.42
2023-05-17T12:51:56.238Z,2.70
2023-05-17T12:54:28.012Z,2.42
2023-05-17T12:56:55.414Z,1.65
2023-05-17T12:59:25.370Z,1.60
2023-05-17T13:01:55.723Z,2.15
2023-05-17T13:04:31.765Z,1.70
2023-05-17T13:07:03.674Z,2.25
2023-05-17T13:09:32.127Z,1.63
2023-05-17T13:12:05.934Z,1.75
2023-05-17T13:14:47.387Z,1.88
2023-05-17T13:17:25.062Z,2.17
2023-05-17T13:19:52.047Z,2.03
2023-05-17T13:22:18.935Z,2.22
2023-05-17T13:24:45.618Z,2.00
2023-05-17T13:27:12.465Z,1.95
2023-05-17T13:29:41.705Z,2.28
2023-05-17T13:32:10.043Z,1.70
2023-05-17T13:34:36.929Z,1.90
2023-05-17T13:37:04.874Z,2.20
2023-05-17T13:39:31.428Z,1.95
2023-05-17T13:41:58.998Z,1.80
2023-05-17T13:44:25.756Z,2.28
2023-05-17T13:46:52.386Z,1.80
2023-05-17T13:49:18.942Z,2.10
2023-05-17T13:51:45.910Z,2.05
2023-05-17T13:54:12.864Z,1.70
2023-05-17T13:56:39.335Z,2.65
2023-05-17T13:59:06.048Z,2.10
2023-05-17T14:01:32.551Z,2.05
2023-05-17T14:04:00.590Z,2.13
2023-05-17T14:06:27.571Z,2.40
2023-05-17T14:08:55.467Z,1.83
2023-05-17T14:11:21.956Z,2.00
2023-05-17T14:13:48.575Z,2.40
2023-05-17T14:16:15.130Z,2.78
2023-05-17T14:18:41.792Z,2.47
2023-05-17T14:21:08.705Z,2.20
2023-05-17T14:23:36.227Z,2.20
2023-05-17T14:26:06.985Z,2.38
2023-05-17T14:28:36.102Z,2.38
2023-05-17T14:31:02.606Z,2.35
2023-05-17T14:33:29.181Z,1.88
2023-05-17T14:35:56.165Z,2.00
2023-05-17T14:38:23.505Z,1.85
2023-05-17T14:40:50.056Z,2.45
2023-05-17T14:43:16.817Z,2.30
2023-05-17T14:45:43.312Z,2.10
2023-05-17T14:48:09.970Z,2.17
2023-05-17T14:50:36.448Z,2.70
2023-05-17T14:53:03.180Z,2.10
2023-05-17T14:55:30.107Z,1.98
2023-05-17T14:57:57.931Z,2.08
2023-05-17T15:00:24.794Z,2.65
2023-05-17T15:02:51.601Z,2.38
2023-05-17T15:05:18.621Z,2.42
2023-05-17T15:07:45.389Z,2.10
2023-05-17T15:10:13.077Z,2.00
2023-05-17T15:12:39.543Z,1.98
2023-05-17T15:15:06.840Z,2.42
2023-05-17T15:17:33.862Z,2.25
2023-05-17T15:20:00.530Z,2.03
2023-05-17T15:22:27.166Z,2.45
2023-05-17T15:24:54.345Z,2.35
2023-05-17T15:27:21.553Z,2.40
2023-05-17T15:29:48.003Z,2.60
2023-05-17T15:32:14.654Z,2.20
2023-05-17T15:34:41.414Z,2.00
2023-05-17T15:37:07.974Z,2.00
2023-05-17T15:39:34.477Z,2.45
2023-05-17T15:42:01.004Z,2.55
2023-05-17T15:44:27.638Z,2.75
2023-05-17T15:46:54.322Z,2.10
2023-05-17T15:49:21.088Z,2.30
2023-05-17T15:51:47.797Z,2.40
2023-05-17T15:54:14.993Z,2.17
2023-05-17T15:56:42.045Z,2.13
2023-05-17T15:59:08.763Z,1.73
2023-05-17T16:01:35.613Z,1.77
2023-05-17T16:04:02.127Z,2.08
2023-05-17T16:06:34.917Z,2.60
2023-05-17T16:09:03.006Z,1.92
2023-05-17T16:13:57.270Z,1.73
2023-05-17T16:16:24.069Z,2.08
2023-05-17T16:18:51.003Z,1.95
2023-05-17T16:21:17.608Z,1.83
2023-05-17T16:23:44.454Z,2.10
2023-05-17T16:26:11.234Z,2.28
2023-05-17T16:28:38.161Z,2.35
2023-05-17T16:31:05.963Z,2.15
2023-05-17T16:33:32.572Z,1.88
2023-05-17T16:35:59.346Z,1.83
2023-05-17T16:38:26.428Z,2.65
2023-05-17T16:40:52.976Z,2.20
2023-05-17T16:43:19.634Z,1.90
2023-05-17T16:45:46.535Z,2.03
2023-05-17T16:48:14.396Z,2.42
2023-05-17T16:50:42.200Z,2.00
2023-05-17T16:53:09.101Z,1.92
2023-05-17T16:55:36.574Z,2.45
2023-05-17T16:58:03.823Z,2.40
2023-05-17T17:00:34.365Z,2.37
2023-05-17T17:03:07.295Z,2.10
2023-05-17T17:05:36.130Z,2.33
2023-05-17T17:08:02.786Z,2.40
2023-05-17T17:10:29.663Z,2.00
2023-05-17T17:12:56.455Z,2.25
2023-05-17T17:15:23.744Z,1.80
2023-05-17T17:17:53.670Z,2.17
2023-05-17T17:20:26.535Z,1.70
2023-05-17T17:22:53.270Z,2.13
2023-05-17T17:25:19.845Z,2.13
2023-05-17T17:27:51.088Z,2.22
2023-05-17T17:30:19.620Z,2.35
2023-05-17T17:32:46.776Z,2.08
2023-05-17T17:35:13.647Z,1.90
2023-05-17T17:40:08.877Z,2.00
2023-05-17T17:42:35.448Z,2.25
2023-05-17T17:45:03.489Z,2.00
2023-05-17T17:47:32.962Z,1.95
2023-05-17T17:49:59.459Z,1.90
2023-05-17T17:52:27.871Z,2.10
2023-05-17T17:54:54.417Z,2.03
2023-05-17T17:57:22.844Z,2.00
2023-05-17T17:59:50.905Z,1.88
2023-05-17T18:02:17.407Z,2.67
2023-05-17T18:04:44.186Z,2.55
2023-05-17T18:07:12.634Z,2.28
2023-05-17T18:09:39.359Z,2.10
2023-05-17T18:12:06.269Z,2.10
2023-05-17T18:14:33.705Z,2.38
2023-05-17T18:17:00.319Z,2.50
2023-05-17T18:19:26.836Z,1.77
2023-05-17T18:21:53.722Z,2.45
2023-05-17T18:24:20.210Z,1.63
2023-05-17T18:26:46.936Z,2.53
2023-05-17T18:29:13.628Z,1.80
2023-05-17T18:31:40.102Z,2.08
2023-05-17T18:34:06.547Z,1.95
2023-05-17T18:36:33.371Z,2.00
2023-05-17T18:39:00.807Z,1.95
2023-05-17T18:41:27.284Z,2.03
2023-05-17T18:43:53.991Z,2.05
2023-05-17T18:46:20.634Z,2.58
2023-05-17T18:48:47.144Z,2.22
2023-05-17T18:51:15.745Z,2.13
2023-05-17T18:53:42.870Z,2.30
2023-05-17T18:56:09.486Z,2.33
2023-05-17T18:58:36.170Z,2.08
2023-05-17T19:01:03.034Z,1.83
2023-05-17T19:03:29.714Z,1.95
2023-05-17T19:05:56.394Z,2.05
2023-05-17T19:08:23.318Z,2.00
2023-05-17T19:10:49.948Z,2.13
2023-05-17T19:13:16.508Z,1.60
2023-05-17T19:15:43.024Z,1.90
2023-05-17T19:18:09.643Z,1.80
2023-05-17T19:20:36.718Z,2.00
2023-05-17T19:23:03.672Z,2.17
2023-05-17T19:25:30.813Z,1.90
2023-05-17T19:27:57.357Z,1.80
2023-05-17T19:30:24.193Z,1.80
2023-05-17T19:32:50.773Z,2.10
2023-05-17T19:35:17.444Z,1.80
2023-05-17T19:37:43.920Z,2.08
2023-05-17T19:40:11.100Z,1.58
2023-05-17T19:42:38.949Z,2.65
2023-05-17T19:45:09.796Z,1.95
2023-05-17T19:47:36.665Z,2.20
2023-05-17T19:50:03.379Z,2.42
2023-05-17T19:52:30.213Z,1.60
2023-05-17T19:54:56.840Z,1.88
2023-05-17T19:57:23.671Z,1.58
2023-05-17T19:59:52.176Z,1.70
2023-05-17T20:02:19.285Z,1.58
2023-05-17T20:04:46.795Z,1.88
2023-05-17T20:07:13.336Z,1.55
2023-05-17T20:09:40.077Z,2.10
2023-05-17T20:12:07.270Z,1.70
2023-05-17T20:14:33.786Z,1.65
2023-05-17T20:17:00.698Z,1.40
2023-05-17T20:19:27.401Z,1.52
2023-05-17T20:21:56.484Z,2.05
2023-05-17T20:24:24.739Z,1.65
2023-05-17T20:26:51.374Z,1.88
2023-05-17T20:29:17.912Z,2.20
2023-05-17T20:31:44.402Z,1.60
2023-05-17T20:34:11.023Z,1.73
2023-05-17T20:36:37.529Z,1.95
2023-05-17T20:39:04.036Z,1.90
2023-05-17T20:41:30.562Z,1.58
2023-05-17T20:43:56.994Z,1.92
2023-05-17T20:46:23.750Z,1.63
2023-05-17T20:48:50.653Z,1.52
2023-05-17T20:51:17.982Z,1.98
2023-05-17T20:53:46.217Z,2.60
2023-05-17T20:56:14.165Z,1.90
2023-05-17T20:58:40.759Z,1.65
2023-05-17T21:01:07.536Z,1.73
2023-05-17T21:03:35.012Z,1.75
2023-05-17T21:06:02.474Z,1.90
2023-05-17T21:08:29.006Z,2.38
2023-05-17T21:10:56.196Z,1.88
2023-05-17T21:13:25.479Z,1.90
2023-05-17T21:15:53.348Z,2.05
2023-05-17T21:18:19.923Z,2.07
2023-05-17T21:20:46.760Z,1.90
2023-05-17T21:23:13.352Z,2.22
2023-05-17T21:25:39.946Z,2.20
2023-05-17T21:28:07.448Z,1.98
2023-05-17T21:30:34.117Z,2.05
2023-05-17T21:33:00.998Z,2.65
2023-05-17T21:35:27.621Z,1.90
2023-05-17T21:37:54.026Z,2.10
2023-05-17T21:40:20.834Z,1.80
2023-05-17T21:42:47.852Z,1.70
2023-05-17T21:45:14.785Z,1.92
2023-05-17T21:47:41.453Z,2.25
2023-05-17T21:50:08.230Z,2.08
2023-05-17T21:52:34.764Z,1.70
2023-05-17T21:55:01.397Z,1.77
2023-05-17T21:57:27.882Z,2.00
2023-05-17T21:59:54.395Z,1.90
2023-05-17T22:02:21.031Z,2.10
2023-05-17T22:04:47.617Z,1.90
2023-05-17T22:07:14.184Z,1.80
2023-05-17T22:09:40.694Z,2.00
2023-05-17T22:12:08.659Z,2.28
2023-05-17T22:14:36.377Z,2.15
2023-05-17T22:17:08.053Z,2.30
2023-05-17T22:19:40.402Z,2.13
2023-05-17T22:22:07.906Z,2.08
2023-05-17T22:24:34.487Z,1.83
2023-05-17T22:27:01.338Z,2.30
2023-05-17T22:29:28.144Z,2.08
2023-05-17T22:31:54.832Z,2.30
2023-05-17T22:34:21.864Z,2.08
2023-05-17T22:36:49.183Z,1.98
2023-05-17T22:39:15.624Z,2.13
2023-05-17T22:41:42.270Z,1.88
2023-05-17T22:44:08.831Z,2.83
2023-05-17T22:46:35.332Z,2.38
2023-05-17T22:49:01.872Z,2.38
2023-05-17T22:51:30.122Z,2.22
2023-05-17T22:53:56.903Z,2.88
2023-05-17T22:56:23.496Z,2.55
2023-05-17T22:58:49.990Z,3.17
2023-05-17T23:01:16.588Z,2.67
2023-05-17T23:03:43.254Z,2.10
2023-05-17T23:06:10.525Z,2.10
2023-05-17T23:08:37.233Z,2.45
2023-05-17T23:11:05.317Z,2.33
2023-05-17T23:13:31.802Z,2.33
2023-05-17T23:15:58.443Z,2.20
2023-05-17T23:18:27.388Z,2.05
2023-05-17T23:20:54.153Z,2.03
2023-05-17T23:23:23.050Z,2.13
2023-05-17T23:25:50.808Z,2.17
2023-05-17T23:28:18.744Z,2.05
2023-05-17T23:30:48.727Z,1.98
2023-05-17T23:33:15.436Z,1.90
2023-05-17T23:35:41.973Z,1.83
2023-05-17T23:38:08.424Z,2.15
2023-05-17T23:40:34.901Z,2.38
2023-05-17T23:43:01.497Z,2.30
2023-05-17T23:45:28.185Z,3.15
2023-05-17T23:47:54.908Z,2.50
2023-05-17T23:50:21.649Z,2.90
2023-05-17T23:52:48.163Z,2.25
2023-05-17T23:55:14.599Z,2.47
2023-05-17T23:57:42.484Z,3.22
